Terminal Aerodrome Forecast
Issued by NWS

Current Version | Previous Version | Graphics & Text | Print | Product List | Glossary On
Versions: 1 2 3 4 5 6 7 8 9 10 11 12 13 14 15 16 17 18 19 20 21 22 23 24 25 26
000
FTUS41 KPBZ 232100 AAA
TAFHLG
TAF AMD
KHLG 232101Z 2321/2418 02007KT P6SM OVC070
      TEMPO 2322/2324 3SM -SN OVC040
     FM240000 01004KT 2SM -SN OVC015
      TEMPO 2400/2403 1SM -SN OVC008
     FM240600 01003KT P6SM OVC015
     FM241500 04005KT P6SM BKN035=

USA.gov is the U.S. government's official web portal to all federal, state and local government web resources and services.